sensor_id;sensor_type;location;lat;lon;timestamp;temperature;humidity
55777;DHT22;54079;44.540;18.784;2023-06-26T00:02:24;20.70;97.10
55777;DHT22;54079;44.540;18.784;2023-06-26T00:04:50;20.80;98.60
55777;DHT22;54079;44.540;18.784;2023-06-26T00:07:20;20.90;98.60
55777;DHT22;54079;44.540;18.784;2023-06-26T00:09:46;21.10;98.40
55777;DHT22;54079;44.540;18.784;2023-06-26T00:12:12;21.10;98.00
55777;DHT22;54079;44.540;18.784;2023-06-26T00:14:38;21.10;97.90
55777;DHT22;54079;44.540;18.784;2023-06-26T00:17:04;21.20;97.80
55777;DHT22;54079;44.540;18.784;2023-06-26T00:19:30;21.20;97.60
55777;DHT22;54079;44.540;18.784;2023-06-26T00:21:56;21.10;97.40
55777;DHT22;54079;44.540;18.784;2023-06-26T00:24:21;21.10;97.90
55777;DHT22;54079;44.540;18.784;2023-06-26T00:26:48;21.00;98.00
55777;DHT22;54079;44.540;18.784;2023-06-26T00:29:14;20.60;98.90
55777;DHT22;54079;44.540;18.784;2023-06-26T00:31:39;20.40;99.90
55777;DHT22;54079;44.540;18.784;2023-06-26T00:34:06;20.60;99.80
55777;DHT22;54079;44.540;18.784;2023-06-26T00:36:32;20.70;99.40
55777;DHT22;54079;44.540;18.784;2023-06-26T00:38:58;20.70;99.20
55777;DHT22;54079;44.540;18.784;2023-06-26T00:41:24;20.70;99.60
55777;DHT22;54079;44.540;18.784;2023-06-26T00:43:51;20.70;99.80
55777;DHT22;54079;44.540;18.784;2023-06-26T00:46:17;20.70;99.70
55777;DHT22;54079;44.540;18.784;2023-06-26T00:48:46;20.80;99.50
55777;DHT22;54079;44.540;18.784;2023-06-26T00:51:12;20.90;99.20
55777;DHT22;54079;44.540;18.784;2023-06-26T00:53:38;20.90;98.60
55777;DHT22;54079;44.540;18.784;2023-06-26T00:56:05;20.90;98.70
55777;DHT22;54079;44.540;18.784;2023-06-26T00:58:31;21.00;98.60
55777;DHT22;54079;44.540;18.784;2023-06-26T01:00:57;21.00;98.80
55777;DHT22;54079;44.540;18.784;2023-06-26T01:03:25;21.10;98.90
55777;DHT22;54079;44.540;18.784;2023-06-26T01:05:58;21.10;99.00
55777;DHT22;54079;44.540;18.784;2023-06-26T01:08:25;20.90;99.00
55777;DHT22;54079;44.540;18.784;2023-06-26T01:10:52;21.00;98.90
55777;DHT22;54079;44.540;18.784;2023-06-26T01:13:18;20.90;98.80
55777;DHT22;54079;44.540;18.784;2023-06-26T01:15:45;20.80;99.30
55777;DHT22;54079;44.540;18.784;2023-06-26T01:18:12;20.20;99.90
55777;DHT22;54079;44.540;18.784;2023-06-26T01:20:41;20.00;99.90
55777;DHT22;54079;44.540;18.784;2023-06-26T01:28:35;20.50;99.90
55777;DHT22;54079;44.540;18.784;2023-06-26T01:31:03;20.50;99.90
55777;DHT22;54079;44.540;18.784;2023-06-26T01:33:30;20.50;99.90
55777;DHT22;54079;44.540;18.784;2023-06-26T01:35:56;20.50;99.90
55777;DHT22;54079;44.540;18.784;2023-06-26T01:38:22;19.90;99.90
55777;DHT22;54079;44.540;18.784;2023-06-26T01:40:50;20.00;99.90
55777;DHT22;54079;44.540;18.784;2023-06-26T01:46:11;20.30;99.90
55777;DHT22;54079;44.540;18.784;2023-06-26T01:48:50;20.40;99.90
55777;DHT22;54079;44.540;18.784;2023-06-26T01:51:17;20.30;99.90
55777;DHT22;54079;44.540;18.784;2023-06-26T01:53:46;20.20;99.90
55777;DHT22;54079;44.540;18.784;2023-06-26T01:56:16;20.30;99.90
55777;DHT22;54079;44.540;18.784;2023-06-26T01:58:47;20.30;99.90
55777;DHT22;54079;44.540;18.784;2023-06-26T02:01:13;20.30;99.90
55777;DHT22;54079;44.540;18.784;2023-06-26T02:03:39;20.40;99.90
55777;DHT22;54079;44.540;18.784;2023-06-26T02:06:05;20.40;99.90
55777;DHT22;54079;44.540;18.784;2023-06-26T02:08:31;20.40;99.90
55777;DHT22;54079;44.540;18.784;2023-06-26T02:10:57;20.40;99.90
55777;DHT22;54079;44.540;18.784;2023-06-26T02:13:23;20.40;99.90
55777;DHT22;54079;44.540;18.784;2023-06-26T02:15:49;20.40;99.90
55777;DHT22;54079;44.540;18.784;2023-06-26T02:18:15;20.30;99.90
55777;DHT22;54079;44.540;18.784;2023-06-26T02:20:41;20.00;99.90
55777;DHT22;54079;44.540;18.784;2023-06-26T02:23:09;20.00;99.90
55777;DHT22;54079;44.540;18.784;2023-06-26T02:25:35;20.10;99.90
55777;DHT22;54079;44.540;18.784;2023-06-26T02:28:01;20.10;99.90
55777;DHT22;54079;44.540;18.784;2023-06-26T02:30:27;20.10;99.90
55777;DHT22;54079;44.540;18.784;2023-06-26T02:32:53;20.10;99.90
55777;DHT22;54079;44.540;18.784;2023-06-26T02:35:19;20.10;99.90
55777;DHT22;54079;44.540;18.784;2023-06-26T02:37:45;19.90;99.90
55777;DHT22;54079;44.540;18.784;2023-06-26T02:40:11;19.80;99.90
55777;DHT22;54079;44.540;18.784;2023-06-26T02:42:37;19.80;99.90
55777;DHT22;54079;44.540;18.784;2023-06-26T02:45:03;20.00;99.90
55777;DHT22;54079;44.540;18.784;2023-06-26T02:47:29;20.10;99.90
55777;DHT22;54079;44.540;18.784;2023-06-26T02:49:55;19.90;99.90
55777;DHT22;54079;44.540;18.784;2023-06-26T02:52:21;19.80;99.90
55777;DHT22;54079;44.540;18.784;2023-06-26T02:54:47;19.80;99.90
55777;DHT22;54079;44.540;18.784;2023-06-26T02:57:13;19.40;99.90
55777;DHT22;54079;44.540;18.784;2023-06-26T02:59:40;19.10;99.90
55777;DHT22;54079;44.540;18.784;2023-06-26T03:02:06;19.10;99.90
55777;DHT22;54079;44.540;18.784;2023-06-26T03:04:32;19.30;99.90
55777;DHT22;54079;44.540;18.784;2023-06-26T03:07:02;19.50;99.90
55777;DHT22;54079;44.540;18.784;2023-06-26T03:09:28;19.60;99.90
55777;DHT22;54079;44.540;18.784;2023-06-26T03:11:54;19.40;99.90
55777;DHT22;54079;44.540;18.784;2023-06-26T03:14:21;19.20;99.90
55777;DHT22;54079;44.540;18.784;2023-06-26T03:16:47;19.20;99.90
55777;DHT22;54079;44.540;18.784;2023-06-26T03:19:13;19.40;99.90
55777;DHT22;54079;44.540;18.784;2023-06-26T03:21:39;19.50;99.90
55777;DHT22;54079;44.540;18.784;2023-06-26T03:24:05;19.50;99.90
55777;DHT22;54079;44.540;18.784;2023-06-26T03:26:31;19.50;99.90
55777;DHT22;54079;44.540;18.784;2023-06-26T03:28:58;19.60;99.90
55777;DHT22;54079;44.540;18.784;2023-06-26T03:31:24;19.60;99.90
55777;DHT22;54079;44.540;18.784;2023-06-26T03:33:49;19.60;99.90
55777;DHT22;54079;44.540;18.784;2023-06-26T03:36:15;19.60;99.90
55777;DHT22;54079;44.540;18.784;2023-06-26T03:38:41;19.60;99.90
55777;DHT22;54079;44.540;18.784;2023-06-26T03:41:08;19.70;99.90
55777;DHT22;54079;44.540;18.784;2023-06-26T03:43:34;19.70;99.90
55777;DHT22;54079;44.540;18.784;2023-06-26T03:45:59;19.70;99.90
55777;DHT22;54079;44.540;18.784;2023-06-26T03:48:25;19.70;99.90
55777;DHT22;54079;44.540;18.784;2023-06-26T03:50:51;19.60;99.90
55777;DHT22;54079;44.540;18.784;2023-06-26T03:53:17;19.60;99.90
55777;DHT22;54079;44.540;18.784;2023-06-26T03:55:43;19.70;99.90
55777;DHT22;54079;44.540;18.784;2023-06-26T03:58:09;19.70;99.90
55777;DHT22;54079;44.540;18.784;2023-06-26T04:00:35;19.90;99.90
55777;DHT22;54079;44.540;18.784;2023-06-26T04:03:01;19.90;99.90
55777;DHT22;54079;44.540;18.784;2023-06-26T04:05:28;19.80;99.90
55777;DHT22;54079;44.540;18.784;2023-06-26T04:07:54;19.90;99.90
55777;DHT22;54079;44.540;18.784;2023-06-26T04:10:20;20.30;99.90
55777;DHT22;54079;44.540;18.784;2023-06-26T04:12:49;20.60;99.90
55777;DHT22;54079;44.540;18.784;2023-06-26T04:15:15;21.00;99.90
55777;DHT22;54079;44.540;18.784;2023-06-26T04:17:40;21.20;99.10
55777;DHT22;54079;44.540;18.784;2023-06-26T04:20:07;21.50;98.20
55777;DHT22;54079;44.540;18.784;2023-06-26T04:22:34;22.20;97.30
55777;DHT22;54079;44.540;18.784;2023-06-26T04:25:03;22.60;95.30
55777;DHT22;54079;44.540;18.784;2023-06-26T04:27:29;22.90;94.60
55777;DHT22;54079;44.540;18.784;2023-06-26T04:29:56;22.90;94.00
55777;DHT22;54079;44.540;18.784;2023-06-26T04:32:21;23.00;93.30
55777;DHT22;54079;44.540;18.784;2023-06-26T04:34:48;22.80;93.00
55777;DHT22;54079;44.540;18.784;2023-06-26T04:37:14;22.70;93.50
55777;DHT22;54079;44.540;18.784;2023-06-26T04:39:43;23.00;93.10
55777;DHT22;54079;44.540;18.784;2023-06-26T04:42:09;23.20;92.50
55777;DHT22;54079;44.540;18.784;2023-06-26T04:44:37;23.00;92.20
55777;DHT22;54079;44.540;18.784;2023-06-26T04:47:03;22.80;92.90
55777;DHT22;54079;44.540;18.784;2023-06-26T04:49:29;23.10;92.60
55777;DHT22;54079;44.540;18.784;2023-06-26T04:51:56;23.40;92.10
55777;DHT22;54079;44.540;18.784;2023-06-26T04:54:22;23.40;92.00
55777;DHT22;54079;44.540;18.784;2023-06-26T04:56:48;23.60;91.90
55777;DHT22;54079;44.540;18.784;2023-06-26T04:59:14;23.90;91.40
55777;DHT22;54079;44.540;18.784;2023-06-26T05:01:40;23.90;91.00
55777;DHT22;54079;44.540;18.784;2023-06-26T05:04:07;23.80;91.00
55777;DHT22;54079;44.540;18.784;2023-06-26T05:06:33;23.90;90.90
55777;DHT22;54079;44.540;18.784;2023-06-26T05:08:59;23.80;91.10
55777;DHT22;54079;44.540;18.784;2023-06-26T05:11:25;23.60;91.60
55777;DHT22;54079;44.540;18.784;2023-06-26T05:13:51;23.80;91.20
55777;DHT22;54079;44.540;18.784;2023-06-26T05:16:17;24.10;90.90
55777;DHT22;54079;44.540;18.784;2023-06-26T05:18:43;23.50;91.70
55777;DHT22;54079;44.540;18.784;2023-06-26T05:21:09;23.70;91.80
55777;DHT22;54079;44.540;18.784;2023-06-26T05:23:35;24.20;91.60
55777;DHT22;54079;44.540;18.784;2023-06-26T05:26:02;24.50;90.80
55777;DHT22;54079;44.540;18.784;2023-06-26T05:28:28;24.50;91.00
55777;DHT22;54079;44.540;18.784;2023-06-26T05:30:57;25.00;90.40
55777;DHT22;54079;44.540;18.784;2023-06-26T05:33:25;25.80;88.60
55777;DHT22;54079;44.540;18.784;2023-06-26T05:35:54;25.80;87.70
55777;DHT22;54079;44.540;18.784;2023-06-26T05:38:21;25.90;87.60
55777;DHT22;54079;44.540;18.784;2023-06-26T05:40:47;27.10;85.70
55777;DHT22;54079;44.540;18.784;2023-06-26T05:43:13;27.20;85.30
55777;DHT22;54079;44.540;18.784;2023-06-26T05:45:40;26.80;84.10
55777;DHT22;54079;44.540;18.784;2023-06-26T05:48:06;26.90;83.40
55777;DHT22;54079;44.540;18.784;2023-06-26T05:50:32;27.00;83.90
55777;DHT22;54079;44.540;18.784;2023-06-26T05:52:59;26.80;83.60
55777;DHT22;54079;44.540;18.784;2023-06-26T05:55:26;26.80;83.70
55777;DHT22;54079;44.540;18.784;2023-06-26T05:57:52;26.90;83.90
55777;DHT22;54079;44.540;18.784;2023-06-26T06:00:19;28.40;81.20
55777;DHT22;54079;44.540;18.784;2023-06-26T06:02:46;28.30;80.20
55777;DHT22;54079;44.540;18.784;2023-06-26T06:05:12;29.50;76.80
55777;DHT22;54079;44.540;18.784;2023-06-26T06:07:38;30.50;75.50
55777;DHT22;54079;44.540;18.784;2023-06-26T06:10:04;31.70;74.30
55777;DHT22;54079;44.540;18.784;2023-06-26T06:12:30;34.10;71.50
55777;DHT22;54079;44.540;18.784;2023-06-26T06:14:56;35.60;66.70
55777;DHT22;54079;44.540;18.784;2023-06-26T06:17:23;35.40;66.30
55777;DHT22;54079;44.540;18.784;2023-06-26T06:19:49;36.90;65.70
55777;DHT22;54079;44.540;18.784;2023-06-26T06:22:15;38.30;61.30
55777;DHT22;54079;44.540;18.784;2023-06-26T06:24:43;39.40;61.20
55777;DHT22;54079;44.540;18.784;2023-06-26T06:27:09;39.80;58.90
55777;DHT22;54079;44.540;18.784;2023-06-26T06:29:35;40.10;58.10
55777;DHT22;54079;44.540;18.784;2023-06-26T06:32:01;41.00;57.90
55777;DHT22;54079;44.540;18.784;2023-06-26T06:34:27;41.70;56.80
55777;DHT22;54079;44.540;18.784;2023-06-26T06:36:53;42.10;56.90
55777;DHT22;54079;44.540;18.784;2023-06-26T06:39:19;41.00;56.10
55777;DHT22;54079;44.540;18.784;2023-06-26T06:41:45;38.50;57.80
55777;DHT22;54079;44.540;18.784;2023-06-26T06:44:11;39.30;57.40
55777;DHT22;54079;44.540;18.784;2023-06-26T06:46:37;40.20;58.10
55777;DHT22;54079;44.540;18.784;2023-06-26T06:49:03;41.30;55.80
55777;DHT22;54079;44.540;18.784;2023-06-26T06:51:29;42.10;55.40
55777;DHT22;54079;44.540;18.784;2023-06-26T06:53:55;42.70;54.60
55777;DHT22;54079;44.540;18.784;2023-06-26T06:56:21;41.00;55.20
55777;DHT22;54079;44.540;18.784;2023-06-26T06:58:47;41.00;56.10
55777;DHT22;54079;44.540;18.784;2023-06-26T07:01:13;42.50;54.90
55777;DHT22;54079;44.540;18.784;2023-06-26T07:03:40;44.30;53.50
55777;DHT22;54079;44.540;18.784;2023-06-26T07:06:06;44.70;53.00
55777;DHT22;54079;44.540;18.784;2023-06-26T07:08:31;46.00;52.00
55777;DHT22;54079;44.540;18.784;2023-06-26T07:10:57;44.10;51.70
55777;DHT22;54079;44.540;18.784;2023-06-26T07:13:23;44.90;52.20
55777;DHT22;54079;44.540;18.784;2023-06-26T07:15:49;45.10;51.30
55777;DHT22;54079;44.540;18.784;2023-06-26T07:18:16;43.60;52.20
55777;DHT22;54079;44.540;18.784;2023-06-26T07:20:42;42.10;52.70
55777;DHT22;54079;44.540;18.784;2023-06-26T07:23:08;41.80;54.50
55777;DHT22;54079;44.540;18.784;2023-06-26T07:25:34;42.30;53.60
55777;DHT22;54079;44.540;18.784;2023-06-26T07:28:00;41.90;54.10
55777;DHT22;54079;44.540;18.784;2023-06-26T07:30:26;44.50;52.90
55777;DHT22;54079;44.540;18.784;2023-06-26T07:32:52;43.90;50.70
55777;DHT22;54079;44.540;18.784;2023-06-26T07:35:18;40.90;53.10
55777;DHT22;54079;44.540;18.784;2023-06-26T07:37:45;42.30;53.50
55777;DHT22;54079;44.540;18.784;2023-06-26T07:40:11;44.00;53.10
55777;DHT22;54079;44.540;18.784;2023-06-26T07:42:37;45.60;51.60
55777;DHT22;54079;44.540;18.784;2023-06-26T07:45:03;44.80;51.10
55777;DHT22;54079;44.540;18.784;2023-06-26T07:47:39;45.20;51.60
55777;DHT22;54079;44.540;18.784;2023-06-26T07:50:06;44.10;50.70
55777;DHT22;54079;44.540;18.784;2023-06-26T07:52:32;40.60;53.10
55777;DHT22;54079;44.540;18.784;2023-06-26T07:54:58;39.00;56.10
55777;DHT22;54079;44.540;18.784;2023-06-26T07:57:24;38.40;56.80
55777;DHT22;54079;44.540;18.784;2023-06-26T07:59:50;42.70;53.80
55777;DHT22;54079;44.540;18.784;2023-06-26T08:02:16;45.60;51.40
55777;DHT22;54079;44.540;18.784;2023-06-26T08:04:43;47.10;49.30
55777;DHT22;54079;44.540;18.784;2023-06-26T08:07:09;45.80;50.70
55777;DHT22;54079;44.540;18.784;2023-06-26T08:09:36;46.30;50.70
55777;DHT22;54079;44.540;18.784;2023-06-26T08:12:02;48.80;49.00
55777;DHT22;54079;44.540;18.784;2023-06-26T08:14:28;49.90;47.50
55777;DHT22;54079;44.540;18.784;2023-06-26T08:16:54;46.50;49.00
55777;DHT22;54079;44.540;18.784;2023-06-26T08:19:20;43.90;50.80
55777;DHT22;54079;44.540;18.784;2023-06-26T08:21:47;44.10;50.90
55777;DHT22;54079;44.540;18.784;2023-06-26T08:24:13;45.50;50.20
55777;DHT22;54079;44.540;18.784;2023-06-26T08:26:42;47.00;49.20
55777;DHT22;54079;44.540;18.784;2023-06-26T08:29:08;47.00;49.30
55777;DHT22;54079;44.540;18.784;2023-06-26T08:31:35;45.90;49.50
55777;DHT22;54079;44.540;18.784;2023-06-26T08:34:02;44.30;50.10
55777;DHT22;54079;44.540;18.784;2023-06-26T08:36:28;42.30;51.70
55777;DHT22;54079;44.540;18.784;2023-06-26T08:38:54;40.70;53.60
55777;DHT22;54079;44.540;18.784;2023-06-26T08:41:20;39.40;54.70
55777;DHT22;54079;44.540;18.784;2023-06-26T08:43:47;37.80;56.20
55777;DHT22;54079;44.540;18.784;2023-06-26T08:46:14;36.40;57.90
55777;DHT22;54079;44.540;18.784;2023-06-26T08:48:45;35.40;59.30
55777;DHT22;54079;44.540;18.784;2023-06-26T08:51:16;34.70;60.70
55777;DHT22;54079;44.540;18.784;2023-06-26T08:56:15;33.50;62.90
55777;DHT22;54079;44.540;18.784;2023-06-26T08:58:43;32.90;63.40
55777;DHT22;54079;44.540;18.784;2023-06-26T09:01:09;32.50;64.60
55777;DHT22;54079;44.540;18.784;2023-06-26T09:03:36;32.20;64.60
55777;DHT22;54079;44.540;18.784;2023-06-26T09:06:02;32.10;65.20
55777;DHT22;54079;44.540;18.784;2023-06-26T09:08:28;32.20;65.30
55777;DHT22;54079;44.540;18.784;2023-06-26T09:10:54;31.80;66.30
55777;DHT22;54079;44.540;18.784;2023-06-26T09:13:20;32.00;66.20
55777;DHT22;54079;44.540;18.784;2023-06-26T09:15:46;32.10;64.80
55777;DHT22;54079;44.540;18.784;2023-06-26T09:18:12;32.20;65.00
55777;DHT22;54079;44.540;18.784;2023-06-26T09:20:38;32.00;65.30
55777;DHT22;54079;44.540;18.784;2023-06-26T09:23:04;32.20;64.50
55777;DHT22;54079;44.540;18.784;2023-06-26T09:25:31;32.40;64.80
55777;DHT22;54079;44.540;18.784;2023-06-26T09:27:57;32.60;65.90
55777;DHT22;54079;44.540;18.784;2023-06-26T09:30:24;33.10;62.80
55777;DHT22;54079;44.540;18.784;2023-06-26T09:32:50;33.50;62.80
55777;DHT22;54079;44.540;18.784;2023-06-26T09:35:16;33.70;62.00
55777;DHT22;54079;44.540;18.784;2023-06-26T09:37:43;33.90;60.80
55777;DHT22;54079;44.540;18.784;2023-06-26T09:40:09;33.80;61.80
55777;DHT22;54079;44.540;18.784;2023-06-26T09:42:35;34.50;60.40
55777;DHT22;54079;44.540;18.784;2023-06-26T09:45:02;34.70;59.60
55777;DHT22;54079;44.540;18.784;2023-06-26T09:47:30;34.60;59.30
55777;DHT22;54079;44.540;18.784;2023-06-26T09:49:57;34.90;59.90
55777;DHT22;54079;44.540;18.784;2023-06-26T09:52:26;34.80;59.70
55777;DHT22;54079;44.540;18.784;2023-06-26T09:55:09;34.50;59.20
55777;DHT22;54079;44.540;18.784;2023-06-26T09:57:35;34.20;59.20
55777;DHT22;54079;44.540;18.784;2023-06-26T10:00:03;34.20;59.70
55777;DHT22;54079;44.540;18.784;2023-06-26T10:02:30;34.50;59.40
55777;DHT22;54079;44.540;18.784;2023-06-26T10:04:56;34.20;60.20
55777;DHT22;54079;44.540;18.784;2023-06-26T10:07:23;34.20;60.40
55777;DHT22;54079;44.540;18.784;2023-06-26T10:09:51;34.30;60.30
55777;DHT22;54079;44.540;18.784;2023-06-26T10:12:29;34.20;61.00
55777;DHT22;54079;44.540;18.784;2023-06-26T10:14:57;33.60;61.20
55777;DHT22;54079;44.540;18.784;2023-06-26T10:17:27;33.70;62.00
55777;DHT22;54079;44.540;18.784;2023-06-26T10:19:55;33.60;62.00
55777;DHT22;54079;44.540;18.784;2023-06-26T10:22:27;33.40;62.40
55777;DHT22;54079;44.540;18.784;2023-06-26T10:24:55;32.90;62.20
55777;DHT22;54079;44.540;18.784;2023-06-26T10:27:26;32.20;63.70
55777;DHT22;54079;44.540;18.784;2023-06-26T10:29:59;32.00;64.20
55777;DHT22;54079;44.540;18.784;2023-06-26T10:32:27;31.70;64.50
55777;DHT22;54079;44.540;18.784;2023-06-26T10:34:55;31.40;65.70
55777;DHT22;54079;44.540;18.784;2023-06-26T10:37:44;30.80;66.70
55777;DHT22;54079;44.540;18.784;2023-06-26T10:40:11;30.30;68.00
55777;DHT22;54079;44.540;18.784;2023-06-26T10:42:46;30.10;68.60
55777;DHT22;54079;44.540;18.784;2023-06-26T10:45:21;30.60;68.00
55777;DHT22;54079;44.540;18.784;2023-06-26T10:47:51;30.50;67.80
55777;DHT22;54079;44.540;18.784;2023-06-26T10:50:30;30.20;69.00
55777;DHT22;54079;44.540;18.784;2023-06-26T10:56:05;30.40;69.50
55777;DHT22;54079;44.540;18.784;2023-06-26T11:01:25;30.60;68.90
55777;DHT22;54079;44.540;18.784;2023-06-26T11:04:04;30.50;69.90
55777;DHT22;54079;44.540;18.784;2023-06-26T11:06:31;31.20;68.70
55777;DHT22;54079;44.540;18.784;2023-06-26T11:14:26;32.90;65.30
55777;DHT22;54079;44.540;18.784;2023-06-26T11:16:55;32.90;64.10
55777;DHT22;54079;44.540;18.784;2023-06-26T11:19:21;32.70;63.30
55777;DHT22;54079;44.540;18.784;2023-06-26T11:21:47;32.80;63.60
55777;DHT22;54079;44.540;18.784;2023-06-26T11:24:13;32.60;63.90
55777;DHT22;54079;44.540;18.784;2023-06-26T11:26:40;32.40;62.10
55777;DHT22;54079;44.540;18.784;2023-06-26T11:29:07;32.10;61.90
55777;DHT22;54079;44.540;18.784;2023-06-26T11:31:34;32.10;62.00
55777;DHT22;54079;44.540;18.784;2023-06-26T11:34:09;32.20;65.30
55777;DHT22;54079;44.540;18.784;2023-06-26T11:36:39;32.10;65.00
55777;DHT22;54079;44.540;18.784;2023-06-26T11:39:07;32.00;64.20
55777;DHT22;54079;44.540;18.784;2023-06-26T11:41:35;32.40;63.50
55777;DHT22;54079;44.540;18.784;2023-06-26T11:44:06;32.30;63.60
55777;DHT22;54079;44.540;18.784;2023-06-26T11:46:34;32.20;62.70
55777;DHT22;54079;44.540;18.784;2023-06-26T11:49:06;32.20;66.00
55777;DHT22;54079;44.540;18.784;2023-06-26T11:51:33;32.40;64.40
55777;DHT22;54079;44.540;18.784;2023-06-26T11:54:01;32.60;62.90
55777;DHT22;54079;44.540;18.784;2023-06-26T11:56:28;32.80;63.10
55777;DHT22;54079;44.540;18.784;2023-06-26T11:58:59;32.60;63.70
55777;DHT22;54079;44.540;18.784;2023-06-26T12:01:36;32.60;63.40
55777;DHT22;54079;44.540;18.784;2023-06-26T12:04:04;32.60;63.40
55777;DHT22;54079;44.540;18.784;2023-06-26T12:06:38;32.00;62.00
55777;DHT22;54079;44.540;18.784;2023-06-26T12:09:08;31.50;64.10
55777;DHT22;54079;44.540;18.784;2023-06-26T12:11:37;31.60;64.10
55777;DHT22;54079;44.540;18.784;2023-06-26T12:14:05;31.60;63.00
55777;DHT22;54079;44.540;18.784;2023-06-26T12:16:34;32.10;63.70
55777;DHT22;54079;44.540;18.784;2023-06-26T12:19:05;32.00;62.20
55777;DHT22;54079;44.540;18.784;2023-06-26T12:21:51;32.00;63.60
55777;DHT22;54079;44.540;18.784;2023-06-26T12:24:19;32.00;63.30
55777;DHT22;54079;44.540;18.784;2023-06-26T12:26:49;32.00;63.20
55777;DHT22;54079;44.540;18.784;2023-06-26T12:29:17;31.40;65.50
55777;DHT22;54079;44.540;18.784;2023-06-26T12:31:46;31.60;64.60
55777;DHT22;54079;44.540;18.784;2023-06-26T12:34:19;31.30;65.40
55777;DHT22;54079;44.540;18.784;2023-06-26T12:36:48;31.60;64.50
55777;DHT22;54079;44.540;18.784;2023-06-26T12:39:19;31.70;65.30
55777;DHT22;54079;44.540;18.784;2023-06-26T12:41:53;31.60;66.40
55777;DHT22;54079;44.540;18.784;2023-06-26T12:44:30;32.10;64.20
55777;DHT22;54079;44.540;18.784;2023-06-26T12:47:01;32.30;63.70
55777;DHT22;54079;44.540;18.784;2023-06-26T12:49:31;32.30;63.50
55777;DHT22;54079;44.540;18.784;2023-06-26T12:51:59;32.00;63.00
55777;DHT22;54079;44.540;18.784;2023-06-26T12:54:25;31.90;62.90
55777;DHT22;54079;44.540;18.784;2023-06-26T12:56:51;31.50;62.80
55777;DHT22;54079;44.540;18.784;2023-06-26T12:59:18;31.50;63.60
55777;DHT22;54079;44.540;18.784;2023-06-26T13:01:44;30.90;63.30
55777;DHT22;54079;44.540;18.784;2023-06-26T13:04:10;31.00;64.10
55777;DHT22;54079;44.540;18.784;2023-06-26T13:06:36;31.50;64.40
55777;DHT22;54079;44.540;18.784;2023-06-26T13:09:02;32.00;63.40
55777;DHT22;54079;44.540;18.784;2023-06-26T13:11:32;32.20;63.00
55777;DHT22;54079;44.540;18.784;2023-06-26T13:13:58;32.60;64.20
55777;DHT22;54079;44.540;18.784;2023-06-26T13:16:25;32.50;63.70
55777;DHT22;54079;44.540;18.784;2023-06-26T13:18:51;32.10;64.30
55777;DHT22;54079;44.540;18.784;2023-06-26T13:21:17;31.80;64.00
55777;DHT22;54079;44.540;18.784;2023-06-26T13:23:46;31.50;64.90
55777;DHT22;54079;44.540;18.784;2023-06-26T13:26:12;31.00;66.60
55777;DHT22;54079;44.540;18.784;2023-06-26T13:28:38;31.10;65.30
55777;DHT22;54079;44.540;18.784;2023-06-26T13:31:04;31.10;63.50
55777;DHT22;54079;44.540;18.784;2023-06-26T13:33:30;30.80;63.90
55777;DHT22;54079;44.540;18.784;2023-06-26T13:35:56;30.50;64.60
55777;DHT22;54079;44.540;18.784;2023-06-26T13:38:24;30.80;67.40
55777;DHT22;54079;44.540;18.784;2023-06-26T13:40:56;31.20;66.80
55777;DHT22;54079;44.540;18.784;2023-06-26T13:43:28;31.30;67.00
55777;DHT22;54079;44.540;18.784;2023-06-26T13:45:55;31.40;66.40
55777;DHT22;54079;44.540;18.784;2023-06-26T13:48:21;31.50;66.90
55777;DHT22;54079;44.540;18.784;2023-06-26T13:50:50;31.50;68.20
55777;DHT22;54079;44.540;18.784;2023-06-26T13:53:15;31.50;64.20
55777;DHT22;54079;44.540;18.784;2023-06-26T13:55:43;31.10;66.30
55777;DHT22;54079;44.540;18.784;2023-06-26T13:58:09;30.80;68.20
55777;DHT22;54079;44.540;18.784;2023-06-26T14:00:37;30.40;67.60
55777;DHT22;54079;44.540;18.784;2023-06-26T14:03:04;30.50;71.20
55777;DHT22;54079;44.540;18.784;2023-06-26T14:05:32;30.90;69.70
55777;DHT22;54079;44.540;18.784;2023-06-26T14:07:58;31.00;69.90
55777;DHT22;54079;44.540;18.784;2023-06-26T14:10:24;31.20;69.70
55777;DHT22;54079;44.540;18.784;2023-06-26T14:12:50;31.10;69.00
55777;DHT22;54079;44.540;18.784;2023-06-26T14:15:16;30.40;68.00
55777;DHT22;54079;44.540;18.784;2023-06-26T14:17:43;30.30;69.30
55777;DHT22;54079;44.540;18.784;2023-06-26T14:20:10;30.50;69.20
55777;DHT22;54079;44.540;18.784;2023-06-26T14:22:39;30.50;69.10
55777;DHT22;54079;44.540;18.784;2023-06-26T14:25:08;30.90;70.20
55777;DHT22;54079;44.540;18.784;2023-06-26T14:27:35;31.10;68.90
55777;DHT22;54079;44.540;18.784;2023-06-26T14:30:03;31.20;67.30
55777;DHT22;54079;44.540;18.784;2023-06-26T14:32:29;31.40;67.00
55777;DHT22;54079;44.540;18.784;2023-06-26T14:34:56;31.50;65.40
55777;DHT22;54079;44.540;18.784;2023-06-26T14:37:22;31.50;65.80
55777;DHT22;54079;44.540;18.784;2023-06-26T14:39:48;31.50;66.50
55777;DHT22;54079;44.540;18.784;2023-06-26T14:42:14;31.50;67.80
55777;DHT22;54079;44.540;18.784;2023-06-26T14:44:40;31.50;67.10
55777;DHT22;54079;44.540;18.784;2023-06-26T14:47:06;31.50;65.60
55777;DHT22;54079;44.540;18.784;2023-06-26T14:49:32;31.50;66.00
55777;DHT22;54079;44.540;18.784;2023-06-26T14:51:58;31.30;67.40
55777;DHT22;54079;44.540;18.784;2023-06-26T14:54:24;31.10;66.90
55777;DHT22;54079;44.540;18.784;2023-06-26T14:56:50;31.10;68.70
55777;DHT22;54079;44.540;18.784;2023-06-26T14:59:16;31.00;70.20
55777;DHT22;54079;44.540;18.784;2023-06-26T15:01:42;31.00;68.20
55777;DHT22;54079;44.540;18.784;2023-06-26T15:04:08;31.00;65.50
55777;DHT22;54079;44.540;18.784;2023-06-26T15:06:34;30.90;64.50
55777;DHT22;54079;44.540;18.784;2023-06-26T15:09:00;30.30;63.90
55777;DHT22;54079;44.540;18.784;2023-06-26T15:11:26;30.00;64.30
55777;DHT22;54079;44.540;18.784;2023-06-26T15:13:52;29.60;66.50
55777;DHT22;54079;44.540;18.784;2023-06-26T15:16:18;29.80;65.50
55777;DHT22;54079;44.540;18.784;2023-06-26T15:18:44;29.60;65.10
55777;DHT22;54079;44.540;18.784;2023-06-26T15:21:10;29.60;66.40
55777;DHT22;54079;44.540;18.784;2023-06-26T15:23:36;29.50;66.50
55777;DHT22;54079;44.540;18.784;2023-06-26T15:26:04;29.80;67.50
55777;DHT22;54079;44.540;18.784;2023-06-26T15:28:30;30.20;67.10
55777;DHT22;54079;44.540;18.784;2023-06-26T15:30:56;30.20;66.00
55777;DHT22;54079;44.540;18.784;2023-06-26T15:33:22;29.30;64.30
55777;DHT22;54079;44.540;18.784;2023-06-26T15:35:48;29.10;67.50
55777;DHT22;54079;44.540;18.784;2023-06-26T15:38:14;28.90;68.10